sensor_id;sensor_type;location;lat;lon;timestamp;temperature;humidity
17813;DHT22;9030;50.792;8.320;2023-02-01T00:00:11;22.10;51.80
17813;DHT22;9030;50.792;8.320;2023-02-01T00:02:40;22.10;51.80
17813;DHT22;9030;50.792;8.320;2023-02-01T00:05:07;22.00;51.70
17813;DHT22;9030;50.792;8.320;2023-02-01T00:07:35;22.10;52.60
17813;DHT22;9030;50.792;8.320;2023-02-01T00:10:02;22.00;51.80
17813;DHT22;9030;50.792;8.320;2023-02-01T00:12:29;22.00;51.80
17813;DHT22;9030;50.792;8.320;2023-02-01T00:14:55;22.00;51.80
17813;DHT22;9030;50.792;8.320;2023-02-01T00:17:22;21.90;51.70
17813;DHT22;9030;50.792;8.320;2023-02-01T00:19:51;21.90;51.70
17813;DHT22;9030;50.792;8.320;2023-02-01T00:22:18;21.90;51.80
17813;DHT22;9030;50.792;8.320;2023-02-01T00:24:44;21.90;51.80
17813;DHT22;9030;50.792;8.320;2023-02-01T00:27:11;21.90;51.90
17813;DHT22;9030;50.792;8.320;2023-02-01T00:29:43;21.90;51.80
17813;DHT22;9030;50.792;8.320;2023-02-01T00:32:09;21.80;51.70
17813;DHT22;9030;50.792;8.320;2023-02-01T00:34:36;21.80;51.80
17813;DHT22;9030;50.792;8.320;2023-02-01T00:37:05;21.80;52.30
17813;DHT22;9030;50.792;8.320;2023-02-01T00:39:31;21.70;51.90
17813;DHT22;9030;50.792;8.320;2023-02-01T00:41:59;21.70;51.90
17813;DHT22;9030;50.792;8.320;2023-02-01T00:44:26;21.70;52.10
17813;DHT22;9030;50.792;8.320;2023-02-01T00:46:53;21.70;51.90
17813;DHT22;9030;50.792;8.320;2023-02-01T00:49:20;21.70;51.90
17813;DHT22;9030;50.792;8.320;2023-02-01T00:51:47;21.70;52.00
17813;DHT22;9030;50.792;8.320;2023-02-01T00:54:15;21.60;51.90
17813;DHT22;9030;50.792;8.320;2023-02-01T00:56:42;21.60;52.00
17813;DHT22;9030;50.792;8.320;2023-02-01T00:59:11;21.60;52.00
17813;DHT22;9030;50.792;8.320;2023-02-01T01:01:38;21.60;52.00
17813;DHT22;9030;50.792;8.320;2023-02-01T01:04:04;21.60;52.10
17813;DHT22;9030;50.792;8.320;2023-02-01T01:06:33;21.50;52.00
17813;DHT22;9030;50.792;8.320;2023-02-01T01:09:03;21.50;52.10
17813;DHT22;9030;50.792;8.320;2023-02-01T01:11:33;21.50;52.00
17813;DHT22;9030;50.792;8.320;2023-02-01T01:14:00;21.50;52.10
17813;DHT22;9030;50.792;8.320;2023-02-01T01:16:29;21.50;52.20
17813;DHT22;9030;50.792;8.320;2023-02-01T01:18:56;21.40;52.00
17813;DHT22;9030;50.792;8.320;2023-02-01T01:21:24;21.40;52.10
17813;DHT22;9030;50.792;8.320;2023-02-01T01:23:51;21.40;52.20
17813;DHT22;9030;50.792;8.320;2023-02-01T01:26:19;21.40;52.20
17813;DHT22;9030;50.792;8.320;2023-02-01T01:28:48;21.30;52.10
17813;DHT22;9030;50.792;8.320;2023-02-01T01:31:16;21.30;52.10
17813;DHT22;9030;50.792;8.320;2023-02-01T01:33:43;21.30;52.80
17813;DHT22;9030;50.792;8.320;2023-02-01T01:36:10;21.30;52.20
17813;DHT22;9030;50.792;8.320;2023-02-01T01:38:38;21.20;52.20
17813;DHT22;9030;50.792;8.320;2023-02-01T01:41:05;21.20;52.20
17813;DHT22;9030;50.792;8.320;2023-02-01T01:43:49;21.20;52.30
17813;DHT22;9030;50.792;8.320;2023-02-01T01:46:17;21.20;52.20
17813;DHT22;9030;50.792;8.320;2023-02-01T01:48:45;21.20;52.30
17813;DHT22;9030;50.792;8.320;2023-02-01T01:51:14;21.10;52.10
17813;DHT22;9030;50.792;8.320;2023-02-01T01:53:47;21.10;52.20
17813;DHT22;9030;50.792;8.320;2023-02-01T01:56:15;21.10;52.20
17813;DHT22;9030;50.792;8.320;2023-02-01T01:58:42;21.10;52.20
17813;DHT22;9030;50.792;8.320;2023-02-01T02:01:10;21.10;52.20
17813;DHT22;9030;50.792;8.320;2023-02-01T02:03:40;21.10;52.30
17813;DHT22;9030;50.792;8.320;2023-02-01T02:06:21;21.10;52.30
17813;DHT22;9030;50.792;8.320;2023-02-01T02:08:50;21.00;52.30
17813;DHT22;9030;50.792;8.320;2023-02-01T02:11:17;21.00;52.30
17813;DHT22;9030;50.792;8.320;2023-02-01T02:13:47;21.00;52.70
17813;DHT22;9030;50.792;8.320;2023-02-01T02:16:24;21.00;52.50
17813;DHT22;9030;50.792;8.320;2023-02-01T02:19:08;21.00;52.50
17813;DHT22;9030;50.792;8.320;2023-02-01T02:21:56;20.90;52.40
17813;DHT22;9030;50.792;8.320;2023-02-01T02:24:49;20.90;52.40
17813;DHT22;9030;50.792;8.320;2023-02-01T02:27:23;20.90;52.50
17813;DHT22;9030;50.792;8.320;2023-02-01T02:30:30;20.90;52.50
17813;DHT22;9030;50.792;8.320;2023-02-01T02:33:25;20.80;52.50
17813;DHT22;9030;50.792;8.320;2023-02-01T02:36:05;20.80;52.50
17813;DHT22;9030;50.792;8.320;2023-02-01T02:38:39;20.80;52.50
17813;DHT22;9030;50.792;8.320;2023-02-01T02:41:13;20.80;52.50
17813;DHT22;9030;50.792;8.320;2023-02-01T02:44:08;20.80;52.60
17813;DHT22;9030;50.792;8.320;2023-02-01T02:47:00;20.80;52.60
17813;DHT22;9030;50.792;8.320;2023-02-01T02:49:52;20.70;52.60
17813;DHT22;9030;50.792;8.320;2023-02-01T02:52:37;20.70;52.50
17813;DHT22;9030;50.792;8.320;2023-02-01T02:55:23;20.70;52.60
17813;DHT22;9030;50.792;8.320;2023-02-01T02:57:51;20.70;52.60
17813;DHT22;9030;50.792;8.320;2023-02-01T03:00:37;20.60;52.50
17813;DHT22;9030;50.792;8.320;2023-02-01T03:03:22;20.70;52.60
17813;DHT22;9030;50.792;8.320;2023-02-01T03:06:13;20.60;52.60
17813;DHT22;9030;50.792;8.320;2023-02-01T03:08:41;20.60;52.60
17813;DHT22;9030;50.792;8.320;2023-02-01T03:11:12;20.60;52.60
17813;DHT22;9030;50.792;8.320;2023-02-01T03:13:44;20.60;52.70
17813;DHT22;9030;50.792;8.320;2023-02-01T03:16:16;20.60;52.70
17813;DHT22;9030;50.792;8.320;2023-02-01T03:18:51;20.50;52.70
17813;DHT22;9030;50.792;8.320;2023-02-01T03:21:23;20.50;52.70
17813;DHT22;9030;50.792;8.320;2023-02-01T03:23:52;20.50;52.70
17813;DHT22;9030;50.792;8.320;2023-02-01T03:26:20;20.50;52.80
17813;DHT22;9030;50.792;8.320;2023-02-01T03:28:53;20.50;52.80
17813;DHT22;9030;50.792;8.320;2023-02-01T03:31:21;20.40;52.80
17813;DHT22;9030;50.792;8.320;2023-02-01T03:33:48;20.50;52.80
17813;DHT22;9030;50.792;8.320;2023-02-01T03:36:19;20.40;52.70
17813;DHT22;9030;50.792;8.320;2023-02-01T03:38:54;20.40;52.80
17813;DHT22;9030;50.792;8.320;2023-02-01T03:41:26;20.40;53.50
17813;DHT22;9030;50.792;8.320;2023-02-01T03:43:56;20.40;52.80
17813;DHT22;9030;50.792;8.320;2023-02-01T03:46:28;20.40;52.90
17813;DHT22;9030;50.792;8.320;2023-02-01T03:49:00;20.30;52.90
17813;DHT22;9030;50.792;8.320;2023-02-01T03:51:29;20.30;52.90
17813;DHT22;9030;50.792;8.320;2023-02-01T03:53:59;20.30;52.90
17813;DHT22;9030;50.792;8.320;2023-02-01T03:56:28;20.30;52.90
17813;DHT22;9030;50.792;8.320;2023-02-01T03:58:56;20.30;52.90
17813;DHT22;9030;50.792;8.320;2023-02-01T04:01:27;20.30;52.90
17813;DHT22;9030;50.792;8.320;2023-02-01T04:03:54;20.30;53.70
17813;DHT22;9030;50.792;8.320;2023-02-01T04:06:21;20.30;52.90
17813;DHT22;9030;50.792;8.320;2023-02-01T04:08:48;20.30;53.00
17813;DHT22;9030;50.792;8.320;2023-02-01T04:11:17;20.20;52.90
17813;DHT22;9030;50.792;8.320;2023-02-01T04:13:44;20.20;53.00
17813;DHT22;9030;50.792;8.320;2023-02-01T04:16:10;20.20;53.00
17813;DHT22;9030;50.792;8.320;2023-02-01T04:18:37;20.20;53.00
17813;DHT22;9030;50.792;8.320;2023-02-01T04:21:04;20.20;53.00
17813;DHT22;9030;50.792;8.320;2023-02-01T04:23:31;20.10;52.90
17813;DHT22;9030;50.792;8.320;2023-02-01T04:26:01;20.10;53.00
17813;DHT22;9030;50.792;8.320;2023-02-01T04:28:30;20.10;53.00
17813;DHT22;9030;50.792;8.320;2023-02-01T04:30:57;20.10;52.90
17813;DHT22;9030;50.792;8.320;2023-02-01T04:33:24;20.20;53.10
17813;DHT22;9030;50.792;8.320;2023-02-01T04:35:51;20.20;53.20
17813;DHT22;9030;50.792;8.320;2023-02-01T04:38:18;20.20;53.10
17813;DHT22;9030;50.792;8.320;2023-02-01T04:40:47;20.30;53.40
17813;DHT22;9030;50.792;8.320;2023-02-01T04:43:14;20.30;53.20
17813;DHT22;9030;50.792;8.320;2023-02-01T04:45:46;20.30;53.10
17813;DHT22;9030;50.792;8.320;2023-02-01T04:48:13;20.30;52.90
17813;DHT22;9030;50.792;8.320;2023-02-01T04:50:40;20.30;52.80
17813;DHT22;9030;50.792;8.320;2023-02-01T04:53:07;20.30;52.70
17813;DHT22;9030;50.792;8.320;2023-02-01T04:55:34;20.30;52.60
17813;DHT22;9030;50.792;8.320;2023-02-01T04:58:00;20.40;52.60
17813;DHT22;9030;50.792;8.320;2023-02-01T05:00:27;20.40;52.50
17813;DHT22;9030;50.792;8.320;2023-02-01T05:02:55;20.40;52.40
17813;DHT22;9030;50.792;8.320;2023-02-01T05:05:22;20.40;52.30
17813;DHT22;9030;50.792;8.320;2023-02-01T05:07:49;20.40;52.20
17813;DHT22;9030;50.792;8.320;2023-02-01T05:10:16;20.50;52.80
17813;DHT22;9030;50.792;8.320;2023-02-01T05:12:43;20.50;52.10
17813;DHT22;9030;50.792;8.320;2023-02-01T05:15:27;20.50;52.10
17813;DHT22;9030;50.792;8.320;2023-02-01T05:17:55;20.50;52.00
17813;DHT22;9030;50.792;8.320;2023-02-01T05:20:22;20.60;52.00
17813;DHT22;9030;50.792;8.320;2023-02-01T05:22:49;20.60;51.90
17813;DHT22;9030;50.792;8.320;2023-02-01T05:25:16;20.60;51.90
17813;DHT22;9030;50.792;8.320;2023-02-01T05:27:42;20.60;51.90
17813;DHT22;9030;50.792;8.320;2023-02-01T05:30:10;20.70;52.10
17813;DHT22;9030;50.792;8.320;2023-02-01T05:32:37;20.70;52.40
17813;DHT22;9030;50.792;8.320;2023-02-01T05:35:06;20.70;52.50
17813;DHT22;9030;50.792;8.320;2023-02-01T05:37:33;20.70;52.50
17813;DHT22;9030;50.792;8.320;2023-02-01T05:40:00;20.70;52.50
17813;DHT22;9030;50.792;8.320;2023-02-01T05:42:26;20.70;52.50
17813;DHT22;9030;50.792;8.320;2023-02-01T05:44:53;20.70;52.60
17813;DHT22;9030;50.792;8.320;2023-02-01T05:47:20;20.60;53.30
17813;DHT22;9030;50.792;8.320;2023-02-01T05:49:46;20.60;53.30
17813;DHT22;9030;50.792;8.320;2023-02-01T05:52:14;20.50;53.20
17813;DHT22;9030;50.792;8.320;2023-02-01T05:54:44;20.60;53.40
17813;DHT22;9030;50.792;8.320;2023-02-01T05:57:11;20.50;53.60
17813;DHT22;9030;50.792;8.320;2023-02-01T05:59:38;20.50;53.90
17813;DHT22;9030;50.792;8.320;2023-02-01T06:02:06;20.50;53.80
17813;DHT22;9030;50.792;8.320;2023-02-01T06:04:33;20.50;54.10
17813;DHT22;9030;50.792;8.320;2023-02-01T06:07:00;20.50;55.50
17813;DHT22;9030;50.792;8.320;2023-02-01T06:09:28;20.60;55.30
17813;DHT22;9030;50.792;8.320;2023-02-01T06:11:54;20.60;54.50
17813;DHT22;9030;50.792;8.320;2023-02-01T06:14:21;20.60;54.30
17813;DHT22;9030;50.792;8.320;2023-02-01T06:16:49;20.70;54.10
17813;DHT22;9030;50.792;8.320;2023-02-01T06:19:16;20.60;54.30
17813;DHT22;9030;50.792;8.320;2023-02-01T06:21:42;20.60;54.30
17813;DHT22;9030;50.792;8.320;2023-02-01T06:24:09;20.60;54.60
17813;DHT22;9030;50.792;8.320;2023-02-01T06:26:38;20.70;53.90
17813;DHT22;9030;50.792;8.320;2023-02-01T06:29:05;20.60;54.00
17813;DHT22;9030;50.792;8.320;2023-02-01T06:31:32;20.60;54.00
17813;DHT22;9030;50.792;8.320;2023-02-01T06:33:59;20.60;54.10
17813;DHT22;9030;50.792;8.320;2023-02-01T06:36:26;20.70;53.80
17813;DHT22;9030;50.792;8.320;2023-02-01T06:38:53;20.70;53.70
17813;DHT22;9030;50.792;8.320;2023-02-01T06:41:21;20.70;54.00
17813;DHT22;9030;50.792;8.320;2023-02-01T06:43:49;20.80;54.00
17813;DHT22;9030;50.792;8.320;2023-02-01T06:46:16;20.80;53.80
17813;DHT22;9030;50.792;8.320;2023-02-01T06:48:43;20.90;53.50
17813;DHT22;9030;50.792;8.320;2023-02-01T06:51:19;21.00;53.30
17813;DHT22;9030;50.792;8.320;2023-02-01T06:53:47;21.00;53.00
17813;DHT22;9030;50.792;8.320;2023-02-01T06:56:13;21.10;53.00
17813;DHT22;9030;50.792;8.320;2023-02-01T06:58:40;21.20;53.00
17813;DHT22;9030;50.792;8.320;2023-02-01T07:01:10;21.20;52.90
17813;DHT22;9030;50.792;8.320;2023-02-01T07:03:37;21.10;53.50
17813;DHT22;9030;50.792;8.320;2023-02-01T07:06:05;21.00;53.50
17813;DHT22;9030;50.792;8.320;2023-02-01T07:08:34;21.10;53.20
17813;DHT22;9030;50.792;8.320;2023-02-01T07:11:02;21.10;52.60
17813;DHT22;9030;50.792;8.320;2023-02-01T07:13:28;21.30;52.30
17813;DHT22;9030;50.792;8.320;2023-02-01T07:15:58;21.40;52.30
17813;DHT22;9030;50.792;8.320;2023-02-01T07:18:26;21.50;52.30
17813;DHT22;9030;50.792;8.320;2023-02-01T07:20:53;21.50;52.10
17813;DHT22;9030;50.792;8.320;2023-02-01T07:23:20;21.50;52.10
17813;DHT22;9030;50.792;8.320;2023-02-01T07:25:47;21.60;52.10
17813;DHT22;9030;50.792;8.320;2023-02-01T07:28:14;21.60;52.00
17813;DHT22;9030;50.792;8.320;2023-02-01T07:30:40;21.60;51.80
17813;DHT22;9030;50.792;8.320;2023-02-01T07:33:07;21.60;51.80
17813;DHT22;9030;50.792;8.320;2023-02-01T07:35:35;21.70;51.80
17813;DHT22;9030;50.792;8.320;2023-02-01T07:38:02;21.70;51.70
17813;DHT22;9030;50.792;8.320;2023-02-01T07:40:29;21.70;51.70
17813;DHT22;9030;50.792;8.320;2023-02-01T07:42:55;21.70;51.50
17813;DHT22;9030;50.792;8.320;2023-02-01T07:45:22;21.70;51.50
17813;DHT22;9030;50.792;8.320;2023-02-01T07:47:51;21.70;51.40
17813;DHT22;9030;50.792;8.320;2023-02-01T07:50:18;21.70;51.40
17813;DHT22;9030;50.792;8.320;2023-02-01T07:52:46;21.70;51.40
17813;DHT22;9030;50.792;8.320;2023-02-01T07:55:13;21.70;51.40
17813;DHT22;9030;50.792;8.320;2023-02-01T07:57:40;21.70;51.30
17813;DHT22;9030;50.792;8.320;2023-02-01T08:00:08;21.80;51.40
17813;DHT22;9030;50.792;8.320;2023-02-01T08:02:52;21.80;51.30
17813;DHT22;9030;50.792;8.320;2023-02-01T08:05:19;21.70;51.30
17813;DHT22;9030;50.792;8.320;2023-02-01T08:07:50;21.70;51.30
17813;DHT22;9030;50.792;8.320;2023-02-01T08:10:17;21.70;51.30
17813;DHT22;9030;50.792;8.320;2023-02-01T08:12:44;21.70;51.30
17813;DHT22;9030;50.792;8.320;2023-02-01T08:15:13;21.70;51.30
17813;DHT22;9030;50.792;8.320;2023-02-01T08:17:45;21.70;51.30
17813;DHT22;9030;50.792;8.320;2023-02-01T08:20:12;21.70;51.20
17813;DHT22;9030;50.792;8.320;2023-02-01T08:22:39;21.70;51.20
17813;DHT22;9030;50.792;8.320;2023-02-01T08:25:08;21.70;51.30
17813;DHT22;9030;50.792;8.320;2023-02-01T08:27:36;21.70;51.20
17813;DHT22;9030;50.792;8.320;2023-02-01T08:30:03;21.70;51.20
17813;DHT22;9030;50.792;8.320;2023-02-01T08:32:30;21.70;51.30
17813;DHT22;9030;50.792;8.320;2023-02-01T08:34:56;21.70;51.10
17813;DHT22;9030;50.792;8.320;2023-02-01T08:37:23;21.70;51.30
17813;DHT22;9030;50.792;8.320;2023-02-01T08:39:50;21.70;51.30
17813;DHT22;9030;50.792;8.320;2023-02-01T08:42:18;21.70;51.20
17813;DHT22;9030;50.792;8.320;2023-02-01T08:45:02;21.60;51.20
17813;DHT22;9030;50.792;8.320;2023-02-01T08:47:29;21.60;51.30
17813;DHT22;9030;50.792;8.320;2023-02-01T08:49:56;21.60;51.20
17813;DHT22;9030;50.792;8.320;2023-02-01T08:52:23;21.60;51.20
17813;DHT22;9030;50.792;8.320;2023-02-01T08:54:50;21.60;51.20
17813;DHT22;9030;50.792;8.320;2023-02-01T08:57:18;21.60;51.20
17813;DHT22;9030;50.792;8.320;2023-02-01T08:59:44;21.60;51.20
17813;DHT22;9030;50.792;8.320;2023-02-01T09:02:12;21.60;51.30
17813;DHT22;9030;50.792;8.320;2023-02-01T09:04:39;21.60;51.30
17813;DHT22;9030;50.792;8.320;2023-02-01T09:07:06;21.60;51.20
17813;DHT22;9030;50.792;8.320;2023-02-01T09:09:33;21.60;51.30
17813;DHT22;9030;50.792;8.320;2023-02-01T09:11:59;21.60;51.30
17813;DHT22;9030;50.792;8.320;2023-02-01T09:14:27;21.60;51.40
17813;DHT22;9030;50.792;8.320;2023-02-01T09:16:54;21.60;51.30
17813;DHT22;9030;50.792;8.320;2023-02-01T09:19:21;21.60;51.30
17813;DHT22;9030;50.792;8.320;2023-02-01T09:21:48;21.50;51.30
17813;DHT22;9030;50.792;8.320;2023-02-01T09:24:14;21.50;51.30
17813;DHT22;9030;50.792;8.320;2023-02-01T09:26:41;21.50;51.30
17813;DHT22;9030;50.792;8.320;2023-02-01T09:29:08;21.50;51.30
17813;DHT22;9030;50.792;8.320;2023-02-01T09:31:38;21.50;51.40
17813;DHT22;9030;50.792;8.320;2023-02-01T09:34:05;21.50;51.40
17813;DHT22;9030;50.792;8.320;2023-02-01T09:36:33;21.50;51.40
17813;DHT22;9030;50.792;8.320;2023-02-01T09:39:00;21.50;51.30
17813;DHT22;9030;50.792;8.320;2023-02-01T09:41:36;21.40;51.30
17813;DHT22;9030;50.792;8.320;2023-02-01T09:44:11;21.40;51.30
17813;DHT22;9030;50.792;8.320;2023-02-01T09:46:42;21.40;51.40
17813;DHT22;9030;50.792;8.320;2023-02-01T09:49:13;21.40;51.30
17813;DHT22;9030;50.792;8.320;2023-02-01T09:51:43;21.40;51.30
17813;DHT22;9030;50.792;8.320;2023-02-01T09:54:14;21.40;51.40
17813;DHT22;9030;50.792;8.320;2023-02-01T09:56:45;21.40;51.40
17813;DHT22;9030;50.792;8.320;2023-02-01T09:59:23;21.40;51.40
17813;DHT22;9030;50.792;8.320;2023-02-01T10:01:53;21.40;51.50
17813;DHT22;9030;50.792;8.320;2023-02-01T10:04:20;21.40;51.50
17813;DHT22;9030;50.792;8.320;2023-02-01T10:06:57;21.30;51.40
17813;DHT22;9030;50.792;8.320;2023-02-01T10:09:38;21.30;51.50
17813;DHT22;9030;50.792;8.320;2023-02-01T10:12:41;21.30;51.40
17813;DHT22;9030;50.792;8.320;2023-02-01T10:15:27;21.30;51.40
17813;DHT22;9030;50.792;8.320;2023-02-01T10:18:12;21.30;51.50
17813;DHT22;9030;50.792;8.320;2023-02-01T10:20:50;21.30;51.50
17813;DHT22;9030;50.792;8.320;2023-02-01T10:23:42;21.30;51.50
17813;DHT22;9030;50.792;8.320;2023-02-01T10:26:19;21.30;51.50
17813;DHT22;9030;50.792;8.320;2023-02-01T10:28:49;21.30;51.60
17813;DHT22;9030;50.792;8.320;2023-02-01T10:31:16;21.20;51.50
17813;DHT22;9030;50.792;8.320;2023-02-01T10:33:46;21.20;51.50
17813;DHT22;9030;50.792;8.320;2023-02-01T10:36:16;21.20;51.50
17813;DHT22;9030;50.792;8.320;2023-02-01T10:38:44;21.20;51.60
17813;DHT22;9030;50.792;8.320;2023-02-01T10:41:13;21.20;51.40
17813;DHT22;9030;50.792;8.320;2023-02-01T10:43:41;21.20;51.50
17813;DHT22;9030;50.792;8.320;2023-02-01T10:46:08;21.20;51.50
17813;DHT22;9030;50.792;8.320;2023-02-01T10:48:35;21.20;51.50
17813;DHT22;9030;50.792;8.320;2023-02-01T10:51:06;21.20;51.50
17813;DHT22;9030;50.792;8.320;2023-02-01T10:53:42;21.20;51.60
17813;DHT22;9030;50.792;8.320;2023-02-01T10:56:12;21.10;51.50
17813;DHT22;9030;50.792;8.320;2023-02-01T10:58:44;21.10;51.50
17813;DHT22;9030;50.792;8.320;2023-02-01T11:01:17;21.10;51.50
17813;DHT22;9030;50.792;8.320;2023-02-01T11:03:52;21.10;51.60
17813;DHT22;9030;50.792;8.320;2023-02-01T11:06:26;21.10;51.60
17813;DHT22;9030;50.792;8.320;2023-02-01T11:08:54;21.10;51.50
17813;DHT22;9030;50.792;8.320;2023-02-01T11:11:22;21.10;51.60
17813;DHT22;9030;50.792;8.320;2023-02-01T11:13:54;21.10;51.40
17813;DHT22;9030;50.792;8.320;2023-02-01T11:16:29;21.10;51.60
17813;DHT22;9030;50.792;8.320;2023-02-01T11:18:58;21.10;51.50
17813;DHT22;9030;50.792;8.320;2023-02-01T11:21:27;21.10;51.50
17813;DHT22;9030;50.792;8.320;2023-02-01T11:23:54;21.10;51.60
17813;DHT22;9030;50.792;8.320;2023-02-01T11:26:22;21.10;51.60
17813;DHT22;9030;50.792;8.320;2023-02-01T11:28:56;21.00;51.50
17813;DHT22;9030;50.792;8.320;2023-02-01T11:31:25;21.00;51.50
17813;DHT22;9030;50.792;8.320;2023-02-01T11:33:54;21.00;51.60
17813;DHT22;9030;50.792;8.320;2023-02-01T11:36:26;21.00;51.60
17813;DHT22;9030;50.792;8.320;2023-02-01T11:39:06;21.00;51.80
17813;DHT22;9030;50.792;8.320;2023-02-01T11:41:41;21.00;51.70
17813;DHT22;9030;50.792;8.320;2023-02-01T11:44:20;21.00;51.70
17813;DHT22;9030;50.792;8.320;2023-02-01T11:46:46;21.00;51.70
17813;DHT22;9030;50.792;8.320;2023-02-01T11:49:20;21.00;51.80
17813;DHT22;9030;50.792;8.320;2023-02-01T11:52:05;21.00;51.60
17813;DHT22;9030;50.792;8.320;2023-02-01T11:54:52;21.00;51.70
17813;DHT22;9030;50.792;8.320;2023-02-01T11:57:33;21.00;51.90
17813;DHT22;9030;50.792;8.320;2023-02-01T12:00:27;21.00;51.80
17813;DHT22;9030;50.792;8.320;2023-02-01T12:03:38;20.90;51.90
17813;DHT22;9030;50.792;8.320;2023-02-01T12:06:10;21.00;52.00
17813;DHT22;9030;50.792;8.320;2023-02-01T12:09:09;21.00;52.10
17813;DHT22;9030;50.792;8.320;2023-02-01T12:11:46;21.10;52.00
17813;DHT22;9030;50.792;8.320;2023-02-01T12:14:36;21.10;51.90
17813;DHT22;9030;50.792;8.320;2023-02-01T12:20:18;21.10;52.00
17813;DHT22;9030;50.792;8.320;2023-02-01T12:22:55;21.10;52.50
17813;DHT22;9030;50.792;8.320;2023-02-01T12:25:39;20.90;52.70
17813;DHT22;9030;50.792;8.320;2023-02-01T12:28:36;20.90;53.20
17813;DHT22;9030;50.792;8.320;2023-02-01T12:31:23;21.00;52.80
17813;DHT22;9030;50.792;8.320;2023-02-01T12:34:07;21.10;53.00
17813;DHT22;9030;50.792;8.320;2023-02-01T12:36:46;21.10;53.10
17813;DHT22;9030;50.792;8.320;2023-02-01T12:39:23;21.10;53.30
17813;DHT22;9030;50.792;8.320;2023-02-01T12:41:56;21.20;53.50
17813;DHT22;9030;50.792;8.320;2023-02-01T12:44:39;21.20;53.60
17813;DHT22;9030;50.792;8.320;2023-02-01T12:47:15;21.30;53.40
17813;DHT22;9030;50.792;8.320;2023-02-01T12:49:50;21.30;53.30
17813;DHT22;9030;50.792;8.320;2023-02-01T12:52:26;21.40;53.20
17813;DHT22;9030;50.792;8.320;2023-02-01T12:54:58;21.40;52.90
17813;DHT22;9030;50.792;8.320;2023-02-01T12:57:31;21.50;52.70
17813;DHT22;9030;50.792;8.320;2023-02-01T13:00:05;21.40;53.00
17813;DHT22;9030;50.792;8.320;2023-02-01T13:02:39;21.40;52.70
17813;DHT22;9030;50.792;8.320;2023-02-01T13:05:14;21.50;53.30
17813;DHT22;9030;50.792;8.320;2023-02-01T13:07:45;21.50;53.30
17813;DHT22;9030;50.792;8.320;2023-02-01T13:10:16;21.50;53.20
17813;DHT22;9030;50.792;8.320;2023-02-01T13:12:50;21.50;53.00
17813;DHT22;9030;50.792;8.320;2023-02-01T13:15:23;21.50;52.80
17813;DHT22;9030;50.792;8.320;2023-02-01T13:17:51;21.40;52.60
17813;DHT22;9030;50.792;8.320;2023-02-01T13:20:24;21.50;52.70
17813;DHT22;9030;50.792;8.320;2023-02-01T13:22:57;21.50;52.60
17813;DHT22;9030;50.792;8.320;2023-02-01T13:25:31;21.50;52.60
17813;DHT22;9030;50.792;8.320;2023-02-01T13:28:03;21.50;52.50
17813;DHT22;9030;50.792;8.320;2023-02-01T13:30:43;21.40;52.50
17813;DHT22;9030;50.792;8.320;2023-02-01T13:33:23;21.40;52.80
17813;DHT22;9030;50.792;8.320;2023-02-01T13:36:22;21.40;52.70
17813;DHT22;9030;50.792;8.320;2023-02-01T13:39:25;21.30;52.60
17813;DHT22;9030;50.792;8.320;2023-02-01T13:41:57;21.30;52.90
17813;DHT22;9030;50.792;8.320;2023-02-01T13:44:30;21.30;52.90
17813;DHT22;9030;50.792;8.320;2023-02-01T13:47:02;21.30;52.90
17813;DHT22;9030;50.792;8.320;2023-02-01T13:49:33;21.30;52.90
17813;DHT22;9030;50.792;8.320;2023-02-01T13:52:04;21.30;53.00
17813;DHT22;9030;50.792;8.320;2023-02-01T13:54:32;21.30;52.90
17813;DHT22;9030;50.792;8.320;2023-02-01T13:57:00;21.30;52.80
17813;DHT22;9030;50.792;8.320;2023-02-01T13:59:53;21.30;52.80
17813;DHT22;9030;50.792;8.320;2023-02-01T14:03:15;21.30;53.00
17813;DHT22;9030;50.792;8.320;2023-02-01T14:06:14;21.30;52.90
17813;DHT22;9030;50.792;8.320;2023-02-01T14:08:44;21.30;52.90
17813;DHT22;9030;50.792;8.320;2023-02-01T14:11:32;21.30;52.90
17813;DHT22;9030;50.792;8.320;2023-02-01T14:17:31;21.30;52.90
17813;DHT22;9030;50.792;8.320;2023-02-01T14:23:27;21.30;52.90
17813;DHT22;9030;50.792;8.320;2023-02-01T14:26:19;21.20;52.90
17813;DHT22;9030;50.792;8.320;2023-02-01T14:28:52;21.20;52.90
17813;DHT22;9030;50.792;8.320;2023-02-01T14:31:32;21.20;53.10
17813;DHT22;9030;50.792;8.320;2023-02-01T14:34:02;21.20;53.00
17813;DHT22;9030;50.792;8.320;2023-02-01T14:36:44;21.20;52.90
17813;DHT22;9030;50.792;8.320;2023-02-01T14:39:34;21.20;53.00
17813;DHT22;9030;50.792;8.320;2023-02-01T14:42:12;21.20;53.20
17813;DHT22;9030;50.792;8.320;2023-02-01T14:44:41;21.20;53.30
17813;DHT22;9030;50.792;8.320;2023-02-01T14:47:11;21.20;53.30
17813;DHT22;9030;50.792;8.320;2023-02-01T14:49:56;21.30;53.20
17813;DHT22;9030;50.792;8.320;2023-02-01T14:52:29;21.30;53.10
17813;DHT22;9030;50.792;8.320;2023-02-01T14:55:02;21.30;53.50
17813;DHT22;9030;50.792;8.320;2023-02-01T14:57:33;21.20;53.20
17813;DHT22;9030;50.792;8.320;2023-02-01T15:00:07;21.20;53.20
17813;DHT22;9030;50.792;8.320;2023-02-01T15:02:36;21.30;53.00
17813;DHT22;9030;50.792;8.320;2023-02-01T15:05:25;21.20;53.00
17813;DHT22;9030;50.792;8.320;2023-02-01T15:07:55;21.30;52.80
17813;DHT22;9030;50.792;8.320;2023-02-01T15:10:22;21.30;52.80
17813;DHT22;9030;50.792;8.320;2023-02-01T15:12:50;21.30;53.00
17813;DHT22;9030;50.792;8.320;2023-02-01T15:15:18;21.30;53.00
17813;DHT22;9030;50.792;8.320;2023-02-01T15:17:53;21.30;53.10
17813;DHT22;9030;50.792;8.320;2023-02-01T15:20:23;21.30;53.10
17813;DHT22;9030;50.792;8.320;2023-02-01T15:22:56;21.30;54.20
17813;DHT22;9030;50.792;8.320;2023-02-01T15:25:25;21.30;56.50
17813;DHT22;9030;50.792;8.320;2023-02-01T15:27:52;21.50;55.90
17813;DHT22;9030;50.792;8.320;2023-02-01T15:30:22;21.60;55.40
17813;DHT22;9030;50.792;8.320;2023-02-01T15:32:50;21.60;55.20
17813;DHT22;9030;50.792;8.320;2023-02-01T15:35:39;21.50;54.60
17813;DHT22;9030;50.792;8.320;2023-02-01T15:38:33;21.60;54.70
17813;DHT22;9030;50.792;8.320;2023-02-01T15:41:03;21.50;54.40
17813;DHT22;9030;50.792;8.320;2023-02-01T15:43:32;21.50;55.10
17813;DHT22;9030;50.792;8.320;2023-02-01T15:46:03;21.40;55.00
17813;DHT22;9030;50.792;8.320;2023-02-01T15:48:38;21.40;54.60
17813;DHT22;9030;50.792;8.320;2023-02-01T15:51:12;21.40;54.00
17813;DHT22;9030;50.792;8.320;2023-02-01T15:53:44;21.40;54.00
17813;DHT22;9030;50.792;8.320;2023-02-01T15:56:11;21.40;53.70
17813;DHT22;9030;50.792;8.320;2023-02-01T15:58:42;21.50;53.60
17813;DHT22;9030;50.792;8.320;2023-02-01T16:01:11;21.50;53.60
17813;DHT22;9030;50.792;8.320;2023-02-01T16:03:41;21.50;53.30
17813;DHT22;9030;50.792;8.320;2023-02-01T16:06:11;21.50;53.30
17813;DHT22;9030;50.792;8.320;2023-02-01T16:08:49;21.50;53.20
17813;DHT22;9030;50.792;8.320;2023-02-01T16:11:26;21.50;53.10
17813;DHT22;9030;50.792;8.320;2023-02-01T16:13:55;21.50;53.90
17813;DHT22;9030;50.792;8.320;2023-02-01T16:16:22;21.50;53.00
17813;DHT22;9030;50.792;8.320;2023-02-01T16:18:49;21.50;53.00
17813;DHT22;9030;50.792;8.320;2023-02-01T16:21:17;21.60;52.90
17813;DHT22;9030;50.792;8.320;2023-02-01T16:23:48;21.60;53.00